Time;durP1;ratioP1;P1;durP2;ratioP2;P2;SDS_P1;SDS_P2;PMS_P1;PMS_P2;Temp;Humidity;BMP_temperature;BMP_pressure;BME280_temperature;BME280_humidity;BME280_pressure;Samples;Min_cycle;Max_cycle;Signal;HPM_P1;HPM_P2
2022/05/25 00:01:24;;;;;;;2.20;1.10;;;12.70;99.90;;;;;;5072675;28;20468;-77
2022/05/25 00:03:50;;;;;;;1.20;0.90;;;12.80;99.90;;;;;;5072420;28;20281;-77
2022/05/25 00:06:16;;;;;;;2.40;0.83;;;12.70;99.90;;;;;;5072464;28;20910;-77
2022/05/25 00:08:42;;;;;;;2.37;0.93;;;12.80;99.90;;;;;;5072556;28;20501;-76
2022/05/25 00:11:09;;;;;;;3.03;0.90;;;12.80;99.90;;;;;;5072699;28;20503;-77
2022/05/25 00:13:36;;;;;;;2.30;1.10;;;12.90;99.90;;;;;;5054775;28;20452;-77
2022/05/25 00:16:03;;;;;;;8.73;1.10;;;12.90;99.90;;;;;;5073100;28;20845;-76
2022/05/25 00:18:30;;;;;;;5.67;1.10;;;13.00;99.90;;;;;;5072713;28;20515;-76
2022/05/25 00:20:56;;;;;;;1.67;1.07;;;13.00;99.90;;;;;;5072457;28;20468;-77
2022/05/25 00:23:23;;;;;;;3.67;1.50;;;12.90;99.90;;;;;;5054379;28;20460;-76
2022/05/25 00:25:48;;;;;;;2.07;1.10;;;12.80;99.90;;;;;;5072728;28;20417;-77
2022/05/25 00:28:16;;;;;;;3.10;0.97;;;12.90;99.90;;;;;;5072821;28;20470;-77
2022/05/25 00:30:44;;;;;;;1.73;1.13;;;12.80;99.90;;;;;;5038433;28;20292;-77
2022/05/25 00:33:09;;;;;;;2.80;1.10;;;12.80;99.90;;;;;;5072585;28;20455;-77
2022/05/25 00:35:36;;;;;;;4.00;1.07;;;12.70;99.90;;;;;;5072919;28;20424;-76
2022/05/25 00:38:04;;;;;;;1.40;1.13;;;12.70;99.90;;;;;;5073333;28;20505;-77
2022/05/25 00:40:43;;;;;;;2.60;0.90;;;12.60;99.90;;;;;;5054343;28;20471;-77
2022/05/25 00:43:10;;;;;;;1.20;1.10;;;12.60;99.90;;;;;;5053532;28;21282;-76
2022/05/25 00:45:49;;;;;;;3.53;1.03;;;12.60;99.90;;;;;;5072002;28;20846;-77
2022/05/25 00:48:44;;;;;;;1.40;1.03;;;12.60;99.90;;;;;;5071750;28;20398;-77
2022/05/25 00:51:14;;;;;;;1.10;0.70;;;12.60;99.90;;;;;;5071907;28;20448;-76
2022/05/25 00:53:51;;;;;;;1.17;1.03;;;12.80;99.90;;;;;;5070218;28;20443;-75
2022/05/25 00:56:23;;;;;;;1.17;1.07;;;12.90;99.90;;;;;;5053577;28;20865;-75
2022/05/25 00:58:56;;;;;;;2.60;0.77;;;12.90;99.90;;;;;;5071703;28;20423;-75
2022/05/25 01:01:22;;;;;;;0.83;0.80;;;13.00;99.90;;;;;;5071178;28;20843;-75
2022/05/25 01:03:48;;;;;;;1.20;0.73;;;13.00;99.90;;;;;;5071215;28;20436;-75
2022/05/25 01:06:58;;;;;;;2.83;0.80;;;12.90;99.90;;;;;;5053187;28;20424;-75
2022/05/25 01:09:33;;;;;;;2.93;1.30;;;12.70;99.90;;;;;;5028197;28;20579;-75
2022/05/25 01:12:08;;;;;;;1.37;0.90;;;12.60;99.90;;;;;;5053280;28;20423;-76
2022/05/25 01:15:03;;;;;;;1.60;1.07;;;12.50;99.90;;;;;;5071495;28;20502;-77
2022/05/25 01:17:37;;;;;;;3.80;1.10;;;12.40;99.90;;;;;;5071533;28;20913;-74
2022/05/25 01:20:28;;;;;;;1.10;1.00;;;12.40;99.90;;;;;;5052670;28;20424;-75
2022/05/25 01:23:39;;;;;;;1.10;1.00;;;12.40;99.90;;;;;;5071151;28;20479;-75
2022/05/25 01:26:26;;;;;;;3.53;0.77;;;12.50;99.90;;;;;;4969762;28;20770;-75
2022/05/25 01:29:11;;;;;;;3.10;0.97;;;12.50;99.90;;;;;;5064503;28;20496;-75
2022/05/25 01:31:44;;;;;;;1.67;0.90;;;12.60;99.90;;;;;;5071427;28;20451;-75
2022/05/25 01:34:42;;;;;;;4.60;1.30;;;12.60;99.90;;;;;;5071075;28;20795;-74
2022/05/25 01:37:19;;;;;;;5.20;1.00;;;12.50;99.90;;;;;;5064332;28;20934;-75
2022/05/25 01:39:53;;;;;;;1.10;0.90;;;12.50;99.90;;;;;;5053332;28;20512;-74
2022/05/25 01:42:46;;;;;;;1.33;1.00;;;12.50;99.90;;;;;;5053124;28;20524;-74
2022/05/25 01:45:14;;;;;;;1.90;0.90;;;12.60;99.90;;;;;;5071168;28;20428;-74
2022/05/25 01:47:44;;;;;;;1.23;0.80;;;12.60;99.90;;;;;;5071137;28;20416;-74
2022/05/25 01:50:29;;;;;;;1.00;0.90;;;12.60;99.90;;;;;;5052500;28;20427;-74
2022/05/25 01:52:59;;;;;;;1.87;0.90;;;12.60;99.90;;;;;;5052080;28;20436;-75
2022/05/25 01:55:29;;;;;;;2.20;0.80;;;12.70;99.90;;;;;;5052150;28;20500;-74
2022/05/25 01:58:01;;;;;;;1.83;0.90;;;12.60;99.90;;;;;;5070030;28;20428;-74
2022/05/25 02:00:31;;;;;;;1.07;0.80;;;12.60;99.90;;;;;;5069898;28;20464;-74
2022/05/25 02:06:07;;;;;;;2.13;0.97;;;12.60;99.90;;;;;;5069483;28;20420;-75
2022/05/25 02:08:42;;;;;;;6.03;0.80;;;12.60;99.90;;;;;;5018548;28;20424;-75
2022/05/25 02:11:29;;;;;;;1.80;1.10;;;12.60;99.90;;;;;;5069713;28;20416;-75
2022/05/25 02:14:24;;;;;;;1.10;0.80;;;12.60;99.90;;;;;;5069439;28;20911;-77
2022/05/25 02:16:58;;;;;;;0.97;0.87;;;12.50;99.90;;;;;;5034048;28;20444;-77
2022/05/25 02:19:29;;;;;;;2.73;1.10;;;12.40;99.90;;;;;;5069419;28;20419;-77
2022/05/25 02:21:58;;;;;;;1.93;0.70;;;12.40;99.90;;;;;;5069304;28;20471;-77
2022/05/25 02:24:37;;;;;;;1.20;0.90;;;12.40;99.90;;;;;;5069514;28;20424;-77
2022/05/25 02:27:19;;;;;;;1.73;0.77;;;12.60;99.90;;;;;;5051458;28;20434;-77
2022/05/25 02:29:49;;;;;;;2.00;0.80;;;12.70;99.90;;;;;;5069815;28;20416;-77
2022/05/25 02:32:34;;;;;;;1.20;1.00;;;12.50;99.90;;;;;;5069100;28;20514;-77
2022/05/25 02:35:01;;;;;;;1.20;1.00;;;12.50;99.90;;;;;;5051143;28;20489;-77
2022/05/25 02:37:30;;;;;;;4.20;0.93;;;12.60;99.90;;;;;;5069229;28;20580;-77
2022/05/25 02:39:58;;;;;;;1.10;0.80;;;12.70;99.90;;;;;;5051076;28;20434;-77
2022/05/25 02:42:24;;;;;;;3.63;1.10;;;12.60;99.90;;;;;;5051459;28;20806;-76
2022/05/25 02:44:51;;;;;;;1.00;0.90;;;12.60;99.90;;;;;;5069190;28;20489;-76
2022/05/25 02:47:16;;;;;;;2.03;1.23;;;12.60;99.90;;;;;;5050985;28;20240;-72
2022/05/25 02:49:42;;;;;;;2.10;0.90;;;12.60;99.90;;;;;;5069125;28;20441;-72
2022/05/25 02:52:09;;;;;;;1.40;1.10;;;12.50;99.90;;;;;;5068943;28;20575;-77
2022/05/25 02:54:36;;;;;;;1.37;0.90;;;12.50;99.90;;;;;;5069027;28;20206;-76
2022/05/25 02:57:04;;;;;;;2.63;1.03;;;12.50;99.90;;;;;;5068893;28;20910;-76
2022/05/25 02:59:29;;;;;;;2.60;0.77;;;12.60;99.90;;;;;;5050911;28;20984;-77
2022/05/25 03:01:55;;;;;;;1.20;1.10;;;12.60;99.90;;;;;;5068803;28;20497;-75
2022/05/25 03:04:21;;;;;;;2.97;0.90;;;12.60;99.90;;;;;;5069712;28;20187;-77
2022/05/25 03:06:47;;;;;;;1.23;0.90;;;12.70;99.90;;;;;;5068953;28;20190;-77
2022/05/25 03:09:13;;;;;;;2.40;1.07;;;12.80;99.90;;;;;;5050748;28;20190;-77
2022/05/25 03:11:39;;;;;;;1.40;0.97;;;12.70;99.90;;;;;;5068946;28;20829;-75
2022/05/25 03:14:04;;;;;;;2.10;0.80;;;12.80;99.90;;;;;;5068749;28;20441;-74
2022/05/25 03:16:30;;;;;;;2.03;0.63;;;12.80;99.90;;;;;;5068055;28;20274;-77
2022/05/25 03:18:58;;;;;;;1.17;0.90;;;12.80;99.90;;;;;;5068669;28;20195;-77
2022/05/25 03:21:25;;;;;;;1.00;0.80;;;12.90;99.90;;;;;;5068449;28;20460;-76
2022/05/25 03:23:51;;;;;;;1.70;1.17;;;12.80;99.90;;;;;;5068740;28;20528;-77
2022/05/25 03:26:17;;;;;;;1.43;0.70;;;12.80;99.90;;;;;;5050373;28;20536;-74
2022/05/25 03:28:42;;;;;;;1.40;0.83;;;12.90;99.90;;;;;;5068451;28;20175;-74
2022/05/25 03:31:08;;;;;;;1.27;0.90;;;12.80;99.90;;;;;;5050519;28;20452;-74
2022/05/25 03:33:34;;;;;;;0.80;0.60;;;12.70;99.90;;;;;;5033736;28;20309;-74
2022/05/25 03:35:59;;;;;;;1.20;0.90;;;12.80;99.90;;;;;;5068491;28;20229;-74
2022/05/25 03:38:27;;;;;;;6.57;0.90;;;12.80;99.90;;;;;;5068466;28;20265;-75
2022/05/25 03:40:53;;;;;;;3.13;1.10;;;12.90;99.90;;;;;;5068335;28;20215;-75
2022/05/25 03:43:20;;;;;;;1.50;0.80;;;12.90;99.90;;;;;;5050131;28;20461;-74
2022/05/25 03:45:46;;;;;;;1.73;0.90;;;12.90;99.90;;;;;;5068492;28;20798;-74
2022/05/25 03:48:12;;;;;;;2.63;0.80;;;12.80;99.90;;;;;;5068395;28;20449;-75
2022/05/25 03:50:40;;;;;;;4.53;1.10;;;12.70;99.90;;;;;;5068344;28;20427;-75
2022/05/25 03:53:07;;;;;;;2.47;1.00;;;12.70;99.90;;;;;;5068386;28;20433;-75
2022/05/25 03:55:36;;;;;;;2.93;0.83;;;12.50;99.90;;;;;;5068604;28;20429;-75
2022/05/25 03:58:03;;;;;;;7.33;1.37;;;12.60;99.90;;;;;;5050476;28;20431;-75
2022/05/25 04:00:29;;;;;;;1.53;0.70;;;12.70;99.90;;;;;;5050338;28;20520;-76
2022/05/25 04:02:57;;;;;;;6.50;1.17;;;12.70;99.90;;;;;;5068593;28;20822;-76
2022/05/25 04:05:23;;;;;;;4.30;0.90;;;12.80;99.90;;;;;;5068516;28;20421;-76
2022/05/25 04:07:49;;;;;;;2.30;0.60;;;12.70;99.90;;;;;;5050774;28;20424;-76
2022/05/25 04:10:18;;;;;;;1.40;0.80;;;12.80;99.90;;;;;;5034291;28;20187;-77
2022/05/25 04:12:44;;;;;;;1.87;0.90;;;12.90;99.90;;;;;;5050095;28;20222;-76
2022/05/25 04:15:12;;;;;;;4.30;1.20;;;13.00;99.90;;;;;;5049494;28;20425;-76
2022/05/25 04:17:38;;;;;;;1.20;0.90;;;13.00;99.90;;;;;;5049259;28;20671;-76
2022/05/25 04:20:05;;;;;;;1.13;1.03;;;13.00;99.90;;;;;;5067418;28;20490;-76
2022/05/25 04:22:32;;;;;;;1.30;1.00;;;13.00;99.90;;;;;;5067246;28;20199;-76
2022/05/25 04:25:02;;;;;;;2.90;0.97;;;13.00;99.90;;;;;;5049220;28;20417;-77
2022/05/25 04:27:28;;;;;;;1.77;0.90;;;12.90;99.90;;;;;;5067428;28;20411;-77
2022/05/25 04:29:54;;;;;;;1.17;0.80;;;12.70;99.90;;;;;;5071042;28;20750;-77
2022/05/25 04:32:20;;;;;;;2.00;1.10;;;12.60;99.90;;;;;;5053032;28;20465;-77
2022/05/25 04:34:45;;;;;;;0.80;0.70;;;12.40;99.90;;;;;;5071224;28;20217;-77
2022/05/25 04:39:56;;;;;;;1.63;0.90;;;12.30;99.90;;;;;;5055393;28;20420;-76
2022/05/25 04:42:21;;;;;;;1.33;0.80;;;12.30;99.90;;;;;;5070771;28;20477;-76
2022/05/25 04:44:47;;;;;;;1.63;1.20;;;12.30;99.90;;;;;;5070810;28;20198;-77
2022/05/25 04:47:13;;;;;;;1.50;0.93;;;12.30;99.90;;;;;;5070826;28;20182;-77
2022/05/25 04:49:43;;;;;;;1.23;1.13;;;12.30;99.90;;;;;;5019880;28;20942;-77
2022/05/25 04:52:09;;;;;;;3.47;1.10;;;12.30;99.90;;;;;;5070226;28;20885;-77
2022/05/25 04:54:34;;;;;;;1.00;0.90;;;12.40;99.90;;;;;;5070307;28;20421;-76
2022/05/25 04:59:44;;;;;;;1.20;1.10;;;12.50;99.90;;;;;;5070417;28;20219;-77
2022/05/25 05:02:10;;;;;;;1.00;0.90;;;12.60;99.90;;;;;;5051800;28;20565;-76
2022/05/25 05:04:37;;;;;;;2.63;0.90;;;12.70;99.90;;;;;;5069940;28;20186;-76
2022/05/25 05:07:03;;;;;;;4.03;1.37;;;12.70;99.90;;;;;;5052021;28;20428;-76
2022/05/25 05:09:37;;;;;;;1.33;1.10;;;12.80;99.90;;;;;;5070904;28;20477;-76
2022/05/25 05:12:03;;;;;;;2.63;1.30;;;12.80;99.90;;;;;;5053753;28;20433;-76
2022/05/25 05:14:29;;;;;;;4.40;1.03;;;12.90;99.90;;;;;;5070959;28;20407;-77
2022/05/25 05:16:57;;;;;;;3.03;1.57;;;13.00;99.90;;;;;;5052346;28;20940;-77
2022/05/25 05:19:26;;;;;;;1.10;1.00;;;13.10;99.90;;;;;;5070980;28;20186;-77
2022/05/25 05:21:57;;;;;;;2.00;0.90;;;13.00;99.90;;;;;;5070377;28;20511;-76
2022/05/25 05:24:27;;;;;;;1.57;0.87;;;13.10;99.90;;;;;;5092676;28;20406;-76
2022/05/25 05:26:52;;;;;;;1.17;1.03;;;13.00;99.90;;;;;;5096863;28;20413;-76
2022/05/25 05:29:18;;;;;;;7.40;1.37;;;13.20;99.90;;;;;;5096732;28;20440;-76
2022/05/25 05:31:44;;;;;;;2.40;1.00;;;13.30;99.90;;;;;;5081253;28;20274;-76
2022/05/25 05:34:11;;;;;;;1.20;0.70;;;13.40;99.90;;;;;;5036554;28;20541;-76
2022/05/25 05:36:42;;;;;;;2.13;1.20;;;13.50;99.90;;;;;;5051832;28;20432;-77
2022/05/25 05:39:09;;;;;;;2.53;1.10;;;13.50;99.90;;;;;;5068931;28;20814;-76
2022/05/25 05:41:41;;;;;;;2.60;1.10;;;13.50;99.90;;;;;;5050170;28;20989;-76
2022/05/25 05:44:10;;;;;;;4.97;1.03;;;13.50;99.90;;;;;;5068815;28;20882;-77
2022/05/25 05:46:38;;;;;;;1.10;0.77;;;13.60;99.90;;;;;;5050879;28;20434;-76
2022/05/25 05:49:08;;;;;;;0.97;0.70;;;13.60;99.90;;;;;;5069008;28;20426;-76
2022/05/25 05:51:35;;;;;;;1.67;0.87;;;13.70;99.90;;;;;;5068855;28;20778;-77
2022/05/25 05:54:02;;;;;;;0.97;0.87;;;13.70;99.90;;;;;;5068880;28;20816;-77
2022/05/25 05:56:28;;;;;;;1.00;0.87;;;13.70;99.90;;;;;;5068592;28;20418;-77
2022/05/25 05:58:54;;;;;;;2.57;0.77;;;13.70;99.90;;;;;;5050565;28;20822;-76
2022/05/25 06:01:20;;;;;;;1.27;0.80;;;13.70;99.90;;;;;;5068360;28;20547;-76
2022/05/25 06:03:45;;;;;;;2.40;0.70;;;13.90;99.90;;;;;;5050407;28;20202;-76
2022/05/25 06:06:11;;;;;;;3.33;0.97;;;14.10;99.90;;;;;;5050261;28;20190;-76
2022/05/25 06:08:36;;;;;;;3.73;1.00;;;14.40;99.90;;;;;;5050289;28;20183;-76
2022/05/25 06:11:02;;;;;;;0.93;0.70;;;14.80;99.90;;;;;;5050394;28;20274;-76
2022/05/25 06:13:28;;;;;;;2.47;1.23;;;15.10;99.90;;;;;;5068171;28;20287;-76
2022/05/25 06:21:24;;;;;;;1.57;0.87;;;15.80;99.90;;;;;;5052715;28;21005;-76
2022/05/25 06:23:51;;;;;;;1.83;1.10;;;15.80;99.90;;;;;;5049960;28;20426;-76
2022/05/25 06:26:18;;;;;;;2.07;0.70;;;15.90;99.90;;;;;;5067969;28;20418;-76
2022/05/25 06:28:44;;;;;;;1.63;0.60;;;15.90;99.90;;;;;;5049622;28;20430;-76
2022/05/25 06:31:11;;;;;;;4.90;0.77;;;16.00;99.90;;;;;;5049974;28;20423;-76
2022/05/25 06:33:38;;;;;;;1.30;0.77;;;16.10;99.90;;;;;;5067757;28;20437;-76
2022/05/25 06:36:18;;;;;;;1.10;1.00;;;16.20;99.90;;;;;;5067621;28;20424;-76
2022/05/25 06:38:44;;;;;;;0.90;0.80;;;16.10;99.90;;;;;;5067781;28;20928;-76
2022/05/25 06:41:11;;;;;;;3.00;0.83;;;16.10;99.90;;;;;;5067785;28;20470;-76
2022/05/25 06:43:36;;;;;;;1.73;0.97;;;16.00;99.90;;;;;;5067535;28;21120;-76
2022/05/25 06:46:03;;;;;;;1.87;0.70;;;16.00;99.90;;;;;;5049793;28;20428;-76
2022/05/25 06:48:29;;;;;;;1.23;0.83;;;16.10;99.90;;;;;;5068092;28;20180;-76
2022/05/25 06:50:55;;;;;;;2.03;0.70;;;16.20;99.90;;;;;;5050257;28;20429;-76
2022/05/25 06:53:20;;;;;;;2.83;0.90;;;16.30;99.90;;;;;;5033623;28;20213;-76
2022/05/25 06:55:46;;;;;;;1.67;0.83;;;16.30;99.90;;;;;;5050185;28;20188;-75
2022/05/25 06:58:12;;;;;;;3.07;0.70;;;16.50;99.90;;;;;;5050172;28;20195;-76
2022/05/25 07:00:38;;;;;;;3.00;0.70;;;16.60;99.90;;;;;;5033306;28;20481;-76
2022/05/25 07:03:09;;;;;;;2.40;1.00;;;16.70;99.90;;;;;;5067786;28;20526;-76
2022/05/25 07:05:34;;;;;;;2.13;1.00;;;16.70;99.90;;;;;;5067958;28;20654;-76
2022/05/25 07:08:00;;;;;;;2.47;0.90;;;16.70;99.90;;;;;;5067530;28;20461;-76
2022/05/25 07:10:26;;;;;;;2.60;1.10;;;16.90;99.90;;;;;;5049674;28;20179;-76
2022/05/25 07:12:51;;;;;;;1.63;0.90;;;16.80;99.90;;;;;;5067637;28;20262;-76
2022/05/25 07:15:17;;;;;;;2.23;1.10;;;16.80;99.90;;;;;;5067873;28;20694;-76
2022/05/25 07:17:42;;;;;;;1.27;0.70;;;17.00;99.90;;;;;;5068192;28;20185;-76
2022/05/25 07:20:09;;;;;;;2.47;1.47;;;16.90;99.90;;;;;;5067979;28;20186;-76
2022/05/25 07:22:36;;;;;;;2.17;1.00;;;17.00;99.90;;;;;;5049751;28;20852;-76
2022/05/25 07:25:01;;;;;;;3.53;1.00;;;17.00;99.90;;;;;;5068157;28;20497;-76
2022/05/25 07:27:27;;;;;;;1.93;0.93;;;17.00;99.90;;;;;;5068066;28;20799;-76
2022/05/25 07:29:53;;;;;;;5.03;1.10;;;16.90;99.90;;;;;;5033290;28;20702;-75
2022/05/25 07:32:19;;;;;;;1.30;1.17;;;17.00;99.90;;;;;;5049562;28;20236;-75
2022/05/25 07:34:58;;;;;;;6.70;1.50;;;17.00;99.90;;;;;;5068158;28;20557;-75
2022/05/25 07:37:27;;;;;;;1.33;1.10;;;17.00;99.90;;;;;;5067815;28;20519;-76
2022/05/25 07:39:58;;;;;;;1.30;0.87;;;17.00;99.90;;;;;;5067684;28;20428;-76
2022/05/25 07:42:25;;;;;;;2.30;0.80;;;17.00;99.90;;;;;;5067383;28;20994;-76
2022/05/25 07:44:59;;;;;;;2.03;0.97;;;17.20;99.90;;;;;;5067531;28;20543;-76
2022/05/25 07:47:28;;;;;;;3.90;1.33;;;17.20;99.90;;;;;;5049054;28;20472;-76
2022/05/25 07:49:53;;;;;;;1.20;1.10;;;17.20;99.90;;;;;;5067566;28;20431;-76
2022/05/25 07:52:20;;;;;;;2.20;1.00;;;17.30;99.90;;;;;;5048999;28;20446;-76
2022/05/25 07:54:47;;;;;;;3.77;0.87;;;17.40;99.90;;;;;;5049345;28;20179;-76
2022/05/25 07:57:13;;;;;;;5.13;1.63;;;17.40;99.90;;;;;;5066928;28;20428;-76
2022/05/25 07:59:40;;;;;;;2.87;0.90;;;17.40;99.90;;;;;;5048686;28;20515;-76
2022/05/25 08:07:51;;;;;;;3.17;1.60;;;17.20;99.90;;;;;;5071163;28;20420;-76
2022/05/25 08:10:22;;;;;;;9.90;1.03;;;17.20;99.90;;;;;;5052722;28;20932;-76
2022/05/25 08:12:49;;;;;;;2.53;1.20;;;17.30;99.90;;;;;;5070513;28;20473;-75
2022/05/25 08:15:15;;;;;;;6.03;0.93;;;17.50;99.90;;;;;;5070390;28;20944;-76
2022/05/25 08:17:41;;;;;;;2.43;0.70;;;17.70;99.90;;;;;;5052313;28;20936;-76
2022/05/25 08:20:08;;;;;;;1.73;0.83;;;18.00;99.90;;;;;;5052475;28;20433;-76
2022/05/25 08:22:33;;;;;;;1.00;0.90;;;18.10;99.90;;;;;;5052218;28;20457;-76
2022/05/25 08:24:59;;;;;;;1.47;1.00;;;18.20;99.40;;;;;;5070390;28;20409;-76
2022/05/25 08:27:25;;;;;;;1.60;1.00;;;18.30;99.30;;;;;;5070257;28;20177;-76
2022/05/25 08:29:51;;;;;;;2.67;0.97;;;18.50;99.70;;;;;;5070302;28;20448;-76
2022/05/25 08:32:16;;;;;;;2.00;1.00;;;18.60;99.60;;;;;;5018973;28;20280;-75
2022/05/25 08:34:43;;;;;;;2.60;0.70;;;18.70;98.80;;;;;;5070148;28;20198;-76
2022/05/25 08:37:09;;;;;;;2.60;1.27;;;18.80;98.00;;;;;;5051792;28;20198;-76
2022/05/25 08:39:35;;;;;;;1.73;1.00;;;19.00;98.10;;;;;;5051855;28;20415;-76
2022/05/25 08:42:06;;;;;;;1.23;0.80;;;19.00;98.10;;;;;;5051688;28;21296;-75
2022/05/25 08:44:32;;;;;;;5.63;0.90;;;19.10;98.50;;;;;;5069865;28;20199;-76
2022/05/25 08:47:01;;;;;;;1.13;1.00;;;19.40;98.30;;;;;;5051948;28;20802;-76
2022/05/25 08:49:31;;;;;;;0.80;0.60;;;19.40;97.10;;;;;;5052145;28;20462;-76
2022/05/25 08:51:59;;;;;;;1.00;0.80;;;19.40;98.20;;;;;;5052031;28;21128;-76
2022/05/25 08:54:27;;;;;;;1.73;0.90;;;19.60;97.00;;;;;;5051927;28;20525;-76
2022/05/25 08:57:06;;;;;;;1.37;0.73;;;19.90;95.30;;;;;;5070183;28;20490;-76
2022/05/25 08:59:56;;;;;;;2.60;0.70;;;19.90;94.80;;;;;;5052293;28;20447;-76
2022/05/25 09:02:29;;;;;;;5.33;0.67;;;19.80;93.70;;;;;;5070260;28;20528;-76
2022/05/25 09:05:17;;;;;;;1.00;0.60;;;19.70;95.10;;;;;;5070532;28;20467;-75
2022/05/25 09:08:05;;;;;;;2.83;0.57;;;19.60;94.10;;;;;;5070436;28;20414;-76
2022/05/25 09:10:42;;;;;;;3.17;0.70;;;19.20;93.90;;;;;;5070242;28;20474;-76
2022/05/25 09:13:40;;;;;;;1.00;0.70;;;19.50;93.60;;;;;;5070205;28;20429;-76
2022/05/25 09:16:16;;;;;;;1.13;0.60;;;19.70;91.70;;;;;;5055390;28;20494;-76
2022/05/25 09:19:01;;;;;;;1.47;0.70;;;20.10;92.70;;;;;;5069834;28;20398;-76
2022/05/25 09:21:33;;;;;;;1.50;1.00;;;20.70;93.30;;;;;;5051223;28;20553;-76
2022/05/25 09:24:03;;;;;;;2.53;0.80;;;21.10;93.50;;;;;;5069979;28;20432;-76
2022/05/25 09:26:31;;;;;;;5.50;1.00;;;21.10;90.30;;;;;;5051647;28;20858;-76
2022/05/25 09:29:02;;;;;;;2.77;0.70;;;20.90;90.00;;;;;;5069785;28;20790;-76
2022/05/25 09:31:34;;;;;;;1.50;0.90;;;20.60;91.40;;;;;;5051927;28;20911;-76
2022/05/25 09:34:08;;;;;;;4.27;0.80;;;21.00;89.70;;;;;;5069534;28;20448;-76
2022/05/25 09:36:58;;;;;;;3.83;1.10;;;21.30;87.90;;;;;;5051386;28;20460;-76
2022/05/25 09:39:29;;;;;;;1.80;0.87;;;21.90;90.80;;;;;;5051440;28;20471;-76
2022/05/25 09:41:59;;;;;;;2.40;0.70;;;22.50;90.00;;;;;;5069699;28;20878;-76
2022/05/25 09:44:26;;;;;;;2.70;0.63;;;22.80;80.40;;;;;;5018770;28;20437;-76
2022/05/25 09:47:01;;;;;;;2.57;0.67;;;22.80;82.70;;;;;;5051446;28;20934;-76
2022/05/25 09:49:44;;;;;;;1.23;0.60;;;23.20;82.80;;;;;;5069780;28;20574;-76
2022/05/25 09:52:30;;;;;;;3.13;0.80;;;22.90;74.80;;;;;;5051131;28;20517;-76
2022/05/25 09:55:03;;;;;;;3.90;1.00;;;23.30;79.40;;;;;;5069363;28;20431;-76
2022/05/25 09:57:52;;;;;;;3.30;0.90;;;23.60;76.30;;;;;;5069084;28;20518;-76
2022/05/25 10:00:44;;;;;;;4.20;0.87;;;23.70;75.20;;;;;;5069357;28;20481;-76
2022/05/25 10:03:43;;;;;;;1.43;0.73;;;23.80;74.40;;;;;;5050319;28;20493;-75
2022/05/25 10:06:22;;;;;;;4.13;1.23;;;23.50;72.60;;;;;;5060819;28;20426;-76
2022/05/25 10:09:07;;;;;;;1.13;0.80;;;23.00;76.80;;;;;;5034534;28;20433;-76
2022/05/25 10:11:41;;;;;;;0.97;0.63;;;23.10;80.50;;;;;;5050099;28;20434;-76
2022/05/25 10:14:21;;;;;;;1.30;0.90;;;23.60;81.60;;;;;;5068649;28;20441;-76
2022/05/25 10:16:49;;;;;;;2.13;0.97;;;23.30;83.50;;;;;;5068649;28;20413;-75
2022/05/25 10:19:18;;;;;;;2.30;0.70;;;23.40;79.10;;;;;;5051223;28;20422;-76
2022/05/25 10:22:02;;;;;;;0.90;0.60;;;23.70;77.20;;;;;;5070146;28;20462;-76
2022/05/25 10:24:43;;;;;;;0.97;0.60;;;24.00;75.60;;;;;;5051376;28;20424;-76
2022/05/25 10:27:28;;;;;;;2.00;0.77;;;23.90;72.70;;;;;;5069628;28;20410;-76
2022/05/25 10:38:30;;;;;;;2.37;0.90;;;23.50;73.60;;;;;;5071503;28;20448;-76
2022/05/25 10:40:58;;;;;;;1.07;0.83;;;23.10;77.50;;;;;;5071043;28;20477;-76
2022/05/25 10:43:31;;;;;;;4.00;0.70;;;23.00;76.80;;;;;;5070486;28;20474;-76
2022/05/25 10:46:01;;;;;;;1.23;0.80;;;23.40;79.30;;;;;;5070570;28;21283;-76
2022/05/25 10:48:51;;;;;;;1.20;0.70;;;23.40;79.30;;;;;;5071066;28;20737;-76
2022/05/25 10:51:52;;;;;;;3.53;0.90;;;23.60;72.50;;;;;;5069683;28;20407;-75
2022/05/25 10:54:47;;;;;;;0.90;0.60;;;23.20;75.50;;;;;;5051244;28;20435;-76
2022/05/25 10:57:37;;;;;;;2.27;0.83;;;22.90;74.80;;;;;;5068448;28;20455;-76
2022/05/25 11:00:16;;;;;;;2.20;0.90;;;22.50;77.00;;;;;;5068025;28;20523;-77
2022/05/25 11:02:54;;;;;;;0.80;0.60;;;22.70;74.80;;;;;;5049913;28;20893;-76
2022/05/25 11:05:51;;;;;;;3.03;0.60;;;22.80;77.90;;;;;;5068084;28;20840;-76
2022/05/25 11:08:52;;;;;;;1.40;0.77;;;22.80;76.90;;;;;;5049901;28;20422;-76
2022/05/25 11:11:26;;;;;;;2.50;0.70;;;23.00;77.80;;;;;;5062828;28;20437;-76
2022/05/25 11:14:20;;;;;;;2.17;0.60;;;22.90;75.30;;;;;;5067966;28;20455;-76
2022/05/25 11:17:07;;;;;;;2.37;0.83;;;23.50;73.30;;;;;;5067992;28;20490;-76
2022/05/25 11:20:26;;;;;;;6.30;0.70;;;24.10;80.00;;;;;;5067973;28;20823;-76
2022/05/25 11:23:16;;;;;;;1.60;0.73;;;23.60;76.00;;;;;;5012067;28;20512;-76
2022/05/25 11:26:10;;;;;;;2.40;0.80;;;22.90;75.50;;;;;;5049896;28;20426;-76
2022/05/25 11:29:01;;;;;;;2.03;0.80;;;22.50;76.40;;;;;;5067647;28;21014;-76
2022/05/25 11:31:51;;;;;;;2.53;1.00;;;23.20;76.30;;;;;;5003384;28;20981;-76
2022/05/25 11:34:20;;;;;;;2.23;0.80;;;23.00;78.50;;;;;;5067932;28;20526;-76
2022/05/25 11:37:04;;;;;;;1.30;0.60;;;22.90;82.10;;;;;;5067768;28;21122;-77
2022/05/25 11:39:49;;;;;;;1.10;0.67;;;22.80;79.10;;;;;;5066934;28;20401;-76
2022/05/25 11:42:33;;;;;;;1.40;0.77;;;22.70;82.30;;;;;;5067380;28;20474;-76
2022/05/25 11:45:18;;;;;;;1.37;0.77;;;22.60;82.60;;;;;;5067110;28;20416;-76
2022/05/25 11:48:15;;;;;;;2.50;0.90;;;22.90;84.30;;;;;;5049263;28;20409;-76
2022/05/25 11:51:02;;;;;;;3.10;0.80;;;23.60;88.10;;;;;;5067253;28;20418;-77
2022/05/25 11:54:08;;;;;;;2.03;0.70;;;24.10;82.20;;;;;;5067249;28;20962;-76
2022/05/25 11:56:46;;;;;;;1.67;0.80;;;24.50;77.30;;;;;;5067540;28;20411;-76
2022/05/25 11:59:34;;;;;;;2.10;0.83;;;24.70;77.80;;;;;;5048688;28;20845;-76
2022/05/25 12:02:18;;;;;;;1.27;0.90;;;24.50;75.50;;;;;;5033120;28;20463;-77
2022/05/25 12:05:08;;;;;;;2.40;0.70;;;24.70;76.70;;;;;;5049070;28;20412;-77
2022/05/25 12:08:03;;;;;;;3.37;0.80;;;24.90;75.60;;;;;;5067330;28;21232;-76
2022/05/25 12:10:40;;;;;;;1.40;0.60;;;25.20;79.00;;;;;;5066946;28;20419;-77
2022/05/25 12:13:29;;;;;;;1.73;0.77;;;25.40;74.30;;;;;;5066632;28;20461;-77
2022/05/25 12:16:13;;;;;;;2.13;0.77;;;25.60;72.40;;;;;;5066414;28;20909;-76
2022/05/25 12:19:01;;;;;;;0.90;0.60;;;25.70;68.60;;;;;;5048079;28;20792;-76
2022/05/25 12:21:31;;;;;;;5.43;0.87;;;25.70;67.00;;;;;;5048010;28;20471;-76
2022/05/25 12:24:11;;;;;;;3.10;0.80;;;25.30;65.20;;;;;;5066222;28;20424;-76
2022/05/25 12:26:38;;;;;;;4.27;0.70;;;25.00;68.80;;;;;;5066295;28;20408;-76
2022/05/25 12:29:24;;;;;;;1.73;0.60;;;24.70;69.70;;;;;;5048095;28;20424;-76
2022/05/25 12:31:55;;;;;;;3.13;0.80;;;24.10;71.00;;;;;;5066257;28;20415;-76
2022/05/25 12:34:25;;;;;;;3.87;0.80;;;24.00;71.80;;;;;;5048224;28;20451;-77
2022/05/25 12:36:51;;;;;;;2.03;0.63;;;24.10;70.50;;;;;;5066631;28;20403;-77
2022/05/25 12:39:42;;;;;;;2.80;1.00;;;24.50;73.30;;;;;;5066509;28;20450;-77
2022/05/25 12:42:23;;;;;;;2.07;0.80;;;25.20;74.00;;;;;;5047936;28;20573;-76
2022/05/25 12:50:55;;;;;;;2.00;0.80;;;24.10;68.70;;;;;;5070003;28;20387;-76
2022/05/25 12:53:24;;;;;;;1.33;0.70;;;23.80;70.20;;;;;;5069557;28;20930;-77
2022/05/25 12:56:00;;;;;;;3.83;0.80;;;23.50;71.00;;;;;;5051599;28;20432;-77
2022/05/25 12:58:41;;;;;;;7.80;0.93;;;23.40;74.50;;;;;;5052223;28;20410;-77
2022/05/25 13:01:29;;;;;;;2.00;0.70;;;23.40;74.20;;;;;;5051188;28;20499;-76
2022/05/25 13:03:55;;;;;;;3.57;0.73;;;23.10;72.60;;;;;;5069852;28;20431;-76
2022/05/25 13:06:33;;;;;;;2.53;0.73;;;23.50;72.80;;;;;;5051578;28;21009;-76
2022/05/25 13:09:02;;;;;;;5.53;0.67;;;24.10;69.00;;;;;;5069433;28;20203;-76
2022/05/25 13:11:37;;;;;;;1.63;0.80;;;24.80;71.60;;;;;;5051209;28;20427;-77
2022/05/25 13:14:18;;;;;;;3.73;0.70;;;25.20;66.20;;;;;;5069381;28;20438;-77
2022/05/25 13:16:50;;;;;;;1.63;1.00;;;25.10;66.60;;;;;;5069886;28;21230;-76
2022/05/25 13:19:39;;;;;;;4.57;0.97;;;24.40;64.00;;;;;;5069869;28;20463;-76
2022/05/25 13:22:16;;;;;;;1.07;0.50;;;23.90;73.60;;;;;;5069684;28;20570;-76
2022/05/25 13:25:05;;;;;;;1.77;0.60;;;23.60;70.40;;;;;;5070069;28;20417;-76
2022/05/25 13:27:58;;;;;;;2.30;0.70;;;23.30;72.90;;;;;;5069587;28;20513;-77
2022/05/25 13:30:46;;;;;;;1.43;0.60;;;23.30;75.40;;;;;;5069148;28;20502;-76
2022/05/25 13:33:28;;;;;;;2.60;0.70;;;22.90;71.20;;;;;;5051362;28;20540;-77
2022/05/25 13:36:07;;;;;;;1.13;0.70;;;23.50;73.00;;;;;;5051552;28;20408;-77
2022/05/25 13:38:41;;;;;;;0.80;0.70;;;24.30;70.40;;;;;;5051634;28;20501;-77
2022/05/25 13:41:22;;;;;;;1.00;0.60;;;24.50;65.80;;;;;;5051609;28;20885;-77
2022/05/25 13:43:50;;;;;;;0.80;0.60;;;24.90;63.80;;;;;;5035715;28;20521;-76
2022/05/25 13:46:31;;;;;;;1.10;0.60;;;25.10;65.80;;;;;;5051437;28;20421;-76
2022/05/25 13:48:57;;;;;;;1.63;0.57;;;24.90;59.70;;;;;;5069239;28;20991;-77
2022/05/25 13:51:24;;;;;;;1.87;0.63;;;25.10;64.00;;;;;;5051388;28;20467;-77
2022/05/25 13:53:51;;;;;;;1.47;0.50;;;25.20;65.90;;;;;;5069193;28;20432;-77